createdAt,value
2023-05-01T00:00:13.670Z,0.00
2023-05-01T00:01:13.627Z,0.00
2023-05-01T00:02:13.613Z,0.00
2023-05-01T00:03:13.725Z,0.00
2023-05-01T00:04:13.745Z,0.00
2023-05-01T00:05:13.655Z,0.00
2023-05-01T00:06:13.595Z,0.00
2023-05-01T00:07:14.470Z,0.00
2023-05-01T00:08:13.549Z,0.00
2023-05-01T00:09:13.583Z,0.00
2023-05-01T00:10:13.543Z,0.00
2023-05-01T00:11:13.550Z,0.00
2023-05-01T00:12:13.500Z,0.00
2023-05-01T00:13:13.513Z,0.00
2023-05-01T00:14:13.482Z,0.00
2023-05-01T00:15:13.465Z,0.00
2023-05-01T00:16:13.520Z,0.00
2023-05-01T00:17:13.499Z,0.00
2023-05-01T00:18:13.474Z,0.00
2023-05-01T00:19:13.416Z,0.00
2023-05-01T00:20:13.380Z,0.00
2023-05-01T00:21:13.396Z,0.00
2023-05-01T00:22:13.398Z,0.00
2023-05-01T00:23:13.411Z,0.00
2023-05-01T00:24:13.384Z,0.00
2023-05-01T00:25:13.359Z,0.00
2023-05-01T00:26:13.345Z,0.00
2023-05-01T00:27:13.338Z,0.00
2023-05-01T00:28:13.395Z,0.00
2023-05-01T00:29:13.330Z,0.00
2023-05-01T00:30:13.314Z,0.00
2023-05-01T00:31:13.333Z,0.00
2023-05-01T00:32:13.332Z,0.00
2023-05-01T00:33:13.281Z,0.00
2023-05-01T00:34:13.271Z,0.00
2023-05-01T00:35:13.253Z,0.00
2023-05-01T00:36:13.267Z,0.00
2023-05-01T00:37:13.254Z,0.00
2023-05-01T00:38:13.233Z,0.00
2023-05-01T00:39:13.243Z,0.00
2023-05-01T00:40:13.212Z,0.00
2023-05-01T00:41:13.211Z,0.00
2023-05-01T00:42:13.188Z,0.00
2023-05-01T00:43:13.188Z,0.00
2023-05-01T00:44:13.142Z,0.00
2023-05-01T00:45:13.149Z,0.00
2023-05-01T00:46:13.179Z,0.00
2023-05-01T00:47:13.126Z,0.00
2023-05-01T00:48:13.116Z,0.00
2023-05-01T00:49:13.113Z,0.00
2023-05-01T00:50:13.098Z,0.00
2023-05-01T00:51:13.087Z,0.00
2023-05-01T00:52:13.070Z,0.00
2023-05-01T00:53:13.071Z,0.00
2023-05-01T00:54:13.113Z,0.00
2023-05-01T00:55:13.081Z,0.00
2023-05-01T00:56:13.025Z,0.00
2023-05-01T00:57:13.018Z,0.00
2023-05-01T00:58:13.020Z,0.00
2023-05-01T00:59:13.037Z,0.00
2023-05-01T01:00:13.050Z,0.00
2023-05-01T01:01:12.991Z,0.00
2023-05-01T01:02:12.984Z,0.00
2023-05-01T01:03:12.960Z,0.00
2023-05-01T01:04:12.970Z,0.00
2023-05-01T01:05:12.938Z,0.00
2023-05-01T01:06:13.012Z,0.00
2023-05-01T01:07:12.991Z,0.00
2023-05-01T01:08:12.909Z,0.00
2023-05-01T01:09:12.917Z,0.00
2023-05-01T01:10:12.876Z,0.00
2023-05-01T01:11:12.890Z,0.00
2023-05-01T01:12:12.861Z,0.00
2023-05-01T01:13:12.896Z,0.00
2023-05-01T01:14:12.845Z,0.00
2023-05-01T01:15:12.825Z,0.00
2023-05-01T01:16:12.857Z,0.00
2023-05-01T01:17:12.975Z,0.00
2023-05-01T01:18:12.835Z,0.00
2023-05-01T01:19:12.841Z,0.00
2023-05-01T01:20:12.791Z,0.00
2023-05-01T01:21:12.779Z,0.00
2023-05-01T01:22:12.758Z,0.00
2023-05-01T01:23:12.771Z,0.00
2023-05-01T01:24:12.749Z,0.00
2023-05-01T01:25:12.734Z,0.00
2023-05-01T01:26:12.708Z,0.00
2023-05-01T01:27:12.722Z,0.00
2023-05-01T01:28:12.683Z,0.00
2023-05-01T01:29:12.693Z,0.00
2023-05-01T01:30:12.755Z,0.00
2023-05-01T01:31:12.734Z,0.00
2023-05-01T01:32:12.634Z,0.00
2023-05-01T01:33:12.672Z,0.00
2023-05-01T01:34:12.630Z,0.00
2023-05-01T01:35:12.633Z,0.00
2023-05-01T01:36:12.608Z,0.00
2023-05-01T01:37:12.598Z,0.00
2023-05-01T01:38:12.603Z,0.00
2023-05-01T01:39:12.605Z,0.00
2023-05-01T01:40:12.587Z,0.00
2023-05-01T01:41:12.588Z,0.00
2023-05-01T01:42:12.545Z,0.00
2023-05-01T01:43:12.532Z,0.00
2023-05-01T01:44:12.517Z,0.00
2023-05-01T01:45:12.538Z,0.00
2023-05-01T01:46:12.563Z,0.00
2023-05-01T01:47:12.496Z,0.00
2023-05-01T01:48:12.569Z,0.00
2023-05-01T01:49:12.468Z,0.00
2023-05-01T01:50:12.463Z,0.00
2023-05-01T01:51:12.456Z,0.00
2023-05-01T01:52:12.427Z,0.00
2023-05-01T01:53:12.436Z,0.00
2023-05-01T01:54:12.400Z,0.00
2023-05-01T01:55:12.400Z,0.00
2023-05-01T01:56:12.395Z,0.00
2023-05-01T01:57:12.380Z,0.00
2023-05-01T01:58:12.385Z,0.00
2023-05-01T01:59:12.397Z,0.00
2023-05-01T02:00:12.335Z,0.00
2023-05-01T02:01:12.542Z,0.00
2023-05-01T02:02:12.386Z,0.00
2023-05-01T02:03:12.455Z,0.00
2023-05-01T02:04:12.317Z,0.00
2023-05-01T02:05:12.324Z,0.00
2023-05-01T02:06:12.287Z,0.00
2023-05-01T02:07:12.269Z,0.00
2023-05-01T02:08:12.275Z,0.00
2023-05-01T02:09:12.266Z,0.00
2023-05-01T02:10:12.244Z,0.00
2023-05-01T02:11:12.261Z,0.00
2023-05-01T02:12:12.230Z,0.00
2023-05-01T02:13:12.236Z,0.00
2023-05-01T02:14:12.192Z,0.00
2023-05-01T02:15:12.196Z,0.00
2023-05-01T02:16:12.405Z,0.00
2023-05-01T02:17:12.195Z,0.00
2023-05-01T02:18:12.154Z,0.00
2023-05-01T02:19:12.170Z,0.00
2023-05-01T02:20:12.171Z,0.00
2023-05-01T02:21:12.128Z,0.00
2023-05-01T02:22:12.103Z,0.00
2023-05-01T02:23:12.129Z,0.00
2023-05-01T02:24:12.099Z,0.00
2023-05-01T02:25:12.091Z,0.00
2023-05-01T02:26:12.069Z,0.00
2023-05-01T02:27:12.082Z,0.00
2023-05-01T02:28:12.054Z,0.00
2023-05-01T02:29:12.069Z,0.00
2023-05-01T02:30:12.034Z,0.00
2023-05-01T02:31:12.059Z,0.00
2023-05-01T02:32:12.333Z,0.00
2023-05-01T02:33:12.032Z,0.00
2023-05-01T02:34:12.036Z,0.00
2023-05-01T02:35:11.988Z,0.00
2023-05-01T02:36:11.969Z,0.00
2023-05-01T02:37:12.013Z,0.00
2023-05-01T02:38:11.991Z,0.00
2023-05-01T02:39:12.017Z,0.00
2023-05-01T02:40:11.917Z,0.00
2023-05-01T02:41:11.925Z,0.00
2023-05-01T02:42:11.900Z,0.00
2023-05-01T02:43:11.895Z,0.00
2023-05-01T02:44:11.877Z,0.00
2023-05-01T02:45:11.896Z,0.00
2023-05-01T02:46:11.908Z,0.00
2023-05-01T02:47:11.902Z,0.00
2023-05-01T02:48:11.916Z,0.00
2023-05-01T02:49:11.843Z,0.00
2023-05-01T02:50:11.846Z,0.00
2023-05-01T02:51:11.848Z,0.00
2023-05-01T02:52:11.842Z,0.00
2023-05-01T02:53:11.835Z,0.00
2023-05-01T02:54:11.791Z,0.00
2023-05-01T02:55:11.797Z,0.00
2023-05-01T02:56:11.837Z,0.00
2023-05-01T02:57:11.728Z,0.00
2023-05-01T02:58:11.703Z,0.00
2023-05-01T02:59:11.725Z,0.00
2023-05-01T03:00:11.730Z,0.00
2023-05-01T03:01:11.767Z,0.00
2023-05-01T03:02:11.695Z,0.00
2023-05-01T03:03:11.760Z,0.00
2023-05-01T03:04:11.830Z,0.00
2023-05-01T03:05:11.672Z,0.00
2023-05-01T03:06:11.698Z,0.00
2023-05-01T03:07:11.655Z,0.00
2023-05-01T03:08:11.708Z,0.00
2023-05-01T03:09:11.618Z,0.00
2023-05-01T03:10:11.628Z,0.00
2023-05-01T03:11:11.603Z,0.00
2023-05-01T03:12:11.599Z,0.00
2023-05-01T03:13:11.582Z,0.00
2023-05-01T03:14:11.607Z,0.00
2023-05-01T03:15:11.560Z,0.00
2023-05-01T03:16:11.605Z,0.00
2023-05-01T03:17:11.551Z,0.00
2023-05-01T03:18:11.594Z,0.00
2023-05-01T03:19:11.495Z,0.00
2023-05-01T03:20:11.495Z,0.00
2023-05-01T03:21:11.556Z,0.00
2023-05-01T03:22:11.456Z,4.00
2023-05-01T03:23:11.439Z,4.00
2023-05-01T03:24:11.436Z,4.00
2023-05-01T03:25:11.429Z,0.00
2023-05-01T03:26:11.444Z,4.00
2023-05-01T03:27:11.432Z,4.00
2023-05-01T03:28:11.434Z,8.00
2023-05-01T03:29:11.394Z,4.00
2023-05-01T03:30:11.381Z,8.00
2023-05-01T03:31:11.375Z,8.00
2023-05-01T03:32:11.441Z,8.00
2023-05-01T03:33:11.441Z,8.00
2023-05-01T03:34:11.397Z,8.00
2023-05-01T03:35:11.361Z,12.00
2023-05-01T03:36:11.338Z,16.00
2023-05-01T03:37:11.321Z,20.00
2023-05-01T03:38:11.323Z,20.00
2023-05-01T03:39:11.283Z,24.00
2023-05-01T03:40:11.297Z,28.00
2023-05-01T03:41:11.845Z,32.00
2023-05-01T03:42:11.271Z,36.00
2023-05-01T03:43:11.268Z,44.00
2023-05-01T03:44:11.245Z,52.00
2023-05-01T03:45:11.232Z,60.00
2023-05-01T03:46:11.303Z,68.00
2023-05-01T03:47:11.200Z,76.00
2023-05-01T03:48:11.323Z,88.00
2023-05-01T03:49:11.190Z,100.00
2023-05-01T03:50:11.210Z,112.00
2023-05-01T03:51:11.165Z,128.00
2023-05-01T03:52:11.204Z,136.00
2023-05-01T03:53:11.166Z,152.00
2023-05-01T03:54:11.146Z,168.00
2023-05-01T03:55:11.133Z,188.00
2023-05-01T03:56:11.141Z,204.00
2023-05-01T03:57:11.135Z,220.00
2023-05-01T03:58:11.152Z,240.00
2023-05-01T03:59:11.102Z,260.00
2023-05-01T04:00:11.088Z,288.00
2023-05-01T04:01:11.042Z,308.00
2023-05-01T04:02:11.106Z,336.00
2023-05-01T04:03:11.074Z,364.00
2023-05-01T04:04:11.207Z,388.00
2023-05-01T04:05:11.035Z,420.00
2023-05-01T04:06:11.103Z,444.00
2023-05-01T04:07:10.999Z,476.00
2023-05-01T04:08:10.992Z,504.00
2023-05-01T04:09:10.982Z,540.00
2023-05-01T04:10:10.989Z,572.00
2023-05-01T04:11:10.939Z,612.00
2023-05-01T04:12:10.949Z,652.00
2023-05-01T04:13:10.902Z,688.00
2023-05-01T04:14:10.935Z,728.00
2023-05-01T04:15:10.897Z,772.00
2023-05-01T04:16:11.047Z,816.00
2023-05-01T04:17:10.891Z,860.00
2023-05-01T04:18:10.961Z,904.00
2023-05-01T04:19:10.860Z,948.00
2023-05-01T04:20:10.871Z,992.00
2023-05-01T04:21:10.852Z,1040.00
2023-05-01T04:22:10.855Z,1096.00
2023-05-01T04:23:10.817Z,1148.00
2023-05-01T04:24:10.863Z,1200.00
2023-05-01T04:25:10.809Z,1248.00
2023-05-01T04:26:10.811Z,1300.00
2023-05-01T04:27:10.785Z,1360.00
2023-05-01T04:28:10.774Z,1420.00
2023-05-01T04:29:10.751Z,1484.00
2023-05-01T04:30:10.762Z,1544.00
2023-05-01T04:31:10.794Z,1616.00
2023-05-01T04:32:10.734Z,1688.00
2023-05-01T04:33:10.785Z,1764.00
2023-05-01T04:34:10.740Z,1852.00
2023-05-01T04:35:10.707Z,1956.00
2023-05-01T04:36:11.105Z,2088.00
2023-05-01T04:37:10.678Z,2204.00
2023-05-01T04:38:10.806Z,2276.00
2023-05-01T04:39:10.671Z,2292.00
2023-05-01T04:40:11.778Z,2272.00
2023-05-01T04:41:10.631Z,2328.00
2023-05-01T04:42:10.635Z,2420.00
2023-05-01T04:43:10.605Z,2560.00
2023-05-01T04:44:10.624Z,2584.00
2023-05-01T04:45:10.576Z,2664.00
2023-05-01T04:46:10.636Z,2756.00
2023-05-01T04:47:10.633Z,2840.00
2023-05-01T04:48:10.617Z,2908.00
2023-05-01T04:49:10.540Z,2904.00
2023-05-01T04:50:10.552Z,2912.00
2023-05-01T04:51:10.528Z,3000.00
2023-05-01T04:52:10.555Z,3092.00
2023-05-01T04:53:10.535Z,3172.00
2023-05-01T04:54:10.503Z,3236.00
2023-05-01T04:55:10.494Z,3296.00
2023-05-01T04:56:10.485Z,3364.00
2023-05-01T04:57:10.471Z,3464.00
2023-05-01T04:58:10.451Z,3476.00
2023-05-01T04:59:10.427Z,3580.00
2023-05-01T05:00:10.431Z,3700.00
2023-05-01T05:01:10.475Z,3884.00
2023-05-01T05:02:10.405Z,3960.00
2023-05-01T05:03:10.550Z,4096.00
2023-05-01T05:04:10.436Z,4224.00
2023-05-01T05:05:10.381Z,4312.00
2023-05-01T05:06:10.422Z,4360.00
2023-05-01T05:07:10.387Z,4412.00
2023-05-01T05:08:10.357Z,4536.00
2023-05-01T05:09:10.360Z,4668.00
2023-05-01T05:10:10.333Z,4660.00
2023-05-01T05:11:10.327Z,4656.00
2023-05-01T05:12:10.353Z,4672.00
2023-05-01T05:13:10.291Z,4896.00
2023-05-01T05:14:10.271Z,5100.00
2023-05-01T05:15:10.275Z,5128.00
2023-05-01T05:16:10.332Z,5344.00
2023-05-01T05:17:10.264Z,5476.00
2023-05-01T05:18:10.329Z,5536.00
2023-05-01T05:19:10.209Z,5516.00
2023-05-01T05:20:10.253Z,5512.00
2023-05-01T05:21:10.190Z,5536.00
2023-05-01T05:22:10.199Z,5420.00
2023-05-01T05:23:10.199Z,5400.00
2023-05-01T05:24:10.186Z,5352.00
2023-05-01T05:25:10.181Z,5412.00
2023-05-01T05:26:10.191Z,5428.00
2023-05-01T05:27:10.134Z,5432.00
2023-05-01T05:28:10.135Z,5524.00
2023-05-01T05:29:10.099Z,5608.00
2023-05-01T05:30:17.176Z,5580.00
2023-05-01T05:31:10.072Z,5604.00
2023-05-01T05:32:10.140Z,5568.00
2023-05-01T05:33:13.943Z,5536.00
2023-05-01T05:34:10.079Z,5624.00
2023-05-01T05:35:10.031Z,5984.00
2023-05-01T05:36:10.070Z,6064.00
2023-05-01T05:37:10.033Z,6024.00
2023-05-01T05:38:10.154Z,6120.00
2023-05-01T05:39:09.996Z,6216.00
2023-05-01T05:40:09.995Z,6304.00
2023-05-01T05:41:10.019Z,6372.00
2023-05-01T05:42:09.973Z,6440.00
2023-05-01T05:43:10.003Z,6528.00
2023-05-01T05:44:09.943Z,6572.00
2023-05-01T05:45:09.940Z,6780.00
2023-05-01T05:46:09.983Z,6800.00
2023-05-01T05:47:09.912Z,6664.00
2023-05-01T05:48:10.006Z,6696.00
2023-05-01T05:49:09.880Z,7120.00
2023-05-01T05:50:09.980Z,7400.00
2023-05-01T05:51:09.894Z,7528.00
2023-05-01T05:52:09.880Z,7624.00
2023-05-01T05:53:09.867Z,7268.00
2023-05-01T05:54:09.845Z,6608.00
2023-05-01T05:55:09.835Z,6368.00
2023-05-01T05:56:09.842Z,6260.00
2023-05-01T05:57:09.828Z,6264.00
2023-05-01T05:58:09.803Z,6328.00
2023-05-01T05:59:09.788Z,6452.00
2023-05-01T06:00:09.775Z,6560.00
2023-05-01T06:01:09.784Z,6672.00
2023-05-01T06:02:09.906Z,6932.00
2023-05-01T06:03:09.812Z,7204.00
2023-05-01T06:04:09.734Z,7480.00
2023-05-01T06:05:09.793Z,7620.00
2023-05-01T06:06:10.102Z,7648.00
2023-05-01T06:07:09.713Z,7436.00
2023-05-01T06:08:09.710Z,7360.00
2023-05-01T06:09:09.752Z,7312.00
2023-05-01T06:10:09.675Z,7120.00
2023-05-01T06:11:09.669Z,7420.00
2023-05-01T06:12:09.675Z,7376.00
2023-05-01T06:13:13.251Z,7064.00
2023-05-01T06:14:09.640Z,7128.00
2023-05-01T06:15:09.600Z,7100.00
2023-05-01T06:16:09.736Z,7112.00
2023-05-01T06:17:09.616Z,7316.00
2023-05-01T06:18:09.606Z,7440.00
2023-05-01T06:19:09.594Z,7328.00
2023-05-01T06:20:09.577Z,7428.00
2023-05-01T06:21:09.541Z,7612.00
2023-05-01T06:22:09.555Z,7956.00
2023-05-01T06:23:09.694Z,8140.00
2023-05-01T06:24:09.543Z,8180.00
2023-05-01T06:25:09.545Z,8268.00
2023-05-01T06:26:09.535Z,8388.00
2023-05-01T06:27:09.484Z,8252.00
2023-05-01T06:28:09.475Z,8272.00
2023-05-01T06:29:09.476Z,8188.00
2023-05-01T06:30:09.507Z,8076.00
2023-05-01T06:31:09.545Z,8360.00
2023-05-01T06:32:09.436Z,8428.00
2023-05-01T06:33:09.494Z,8424.00
2023-05-01T06:34:09.412Z,8776.00
2023-05-01T06:35:09.393Z,8884.00
2023-05-01T06:36:09.420Z,9040.00
2023-05-01T06:37:09.402Z,9228.00
2023-05-01T06:38:09.378Z,9380.00
2023-05-01T06:39:09.398Z,9660.00
2023-05-01T06:40:09.384Z,9708.00
2023-05-01T06:41:09.389Z,9876.00
2023-05-01T06:42:09.346Z,9996.00
2023-05-01T06:43:09.309Z,10064.00
2023-05-01T06:44:09.308Z,10160.00
2023-05-01T06:45:09.279Z,10220.00
2023-05-01T06:46:09.314Z,10604.00
2023-05-01T06:47:09.326Z,10692.00
2023-05-01T06:48:09.312Z,10608.00
2023-05-01T06:49:09.258Z,10636.00
2023-05-01T06:50:09.297Z,10656.00
2023-05-01T06:51:09.220Z,10636.00
2023-05-01T06:52:09.233Z,10620.00
2023-05-01T06:53:09.204Z,10748.00
2023-05-01T06:54:09.231Z,10788.00
2023-05-01T06:55:09.193Z,10772.00
2023-05-01T06:56:09.191Z,10564.00
2023-05-01T06:57:09.145Z,10556.00
2023-05-01T06:58:22.498Z,10636.00
2023-05-01T06:59:10.130Z,10492.00
2023-05-01T07:00:09.153Z,10484.00
2023-05-01T07:01:09.140Z,11092.00
2023-05-01T07:02:09.154Z,11224.00
2023-05-01T07:03:09.130Z,11236.00
2023-05-01T07:04:09.118Z,11268.00
2023-05-01T07:05:09.115Z,11148.00
2023-05-01T07:06:09.177Z,11084.00
2023-05-01T07:07:09.050Z,11144.00
2023-05-01T07:08:09.060Z,11328.00
2023-05-01T07:09:09.026Z,11348.00
2023-05-01T07:10:09.044Z,11340.00
2023-05-01T07:11:09.043Z,11292.00
2023-05-01T07:12:10.018Z,11252.00
2023-05-01T07:13:09.002Z,11208.00
2023-05-01T07:14:08.967Z,11160.00
2023-05-01T07:15:08.945Z,11028.00
2023-05-01T07:16:08.991Z,11020.00
2023-05-01T07:17:08.940Z,10980.00
2023-05-01T07:18:09.059Z,11004.00
2023-05-01T07:19:08.921Z,10984.00
2023-05-01T07:20:08.901Z,11016.00
2023-05-01T07:21:08.892Z,10964.00
2023-05-01T07:22:08.875Z,11060.00
2023-05-01T07:23:08.882Z,11200.00
2023-05-01T07:24:08.853Z,11232.00
2023-05-01T07:25:08.852Z,11080.00
2023-05-01T07:26:08.829Z,10908.00
2023-05-01T07:27:08.854Z,10656.00
2023-05-01T07:28:08.812Z,10732.00
2023-05-01T07:29:08.831Z,10676.00
2023-05-01T07:30:08.798Z,11168.00
2023-05-01T07:31:08.805Z,11112.00
2023-05-01T07:32:08.863Z,11112.00
2023-05-01T07:33:08.817Z,11164.00
2023-05-01T07:34:08.762Z,11384.00
2023-05-01T07:35:08.759Z,11624.00
2023-05-01T07:36:08.748Z,11748.00
2023-05-01T07:37:08.782Z,11780.00
2023-05-01T07:38:08.739Z,11612.00
2023-05-01T07:39:08.715Z,11852.00
2023-05-01T07:40:08.679Z,12100.00
2023-05-01T07:41:08.695Z,12144.00
2023-05-01T07:42:08.805Z,12460.00
2023-05-01T07:43:08.663Z,12776.00
2023-05-01T07:44:08.646Z,12924.00
2023-05-01T07:45:08.657Z,13096.00
2023-05-01T07:46:08.667Z,13284.00
2023-05-01T07:47:08.607Z,13612.00
2023-05-01T07:48:08.717Z,13820.00
2023-05-01T07:49:08.603Z,14012.00
2023-05-01T07:50:08.558Z,14020.00
2023-05-01T07:51:08.580Z,14064.00
2023-05-01T07:52:08.553Z,13988.00
2023-05-01T07:53:08.614Z,13796.00
2023-05-01T07:54:08.529Z,13780.00
2023-05-01T07:55:08.572Z,13872.00
2023-05-01T07:56:08.592Z,13952.00
2023-05-01T07:57:08.532Z,13988.00
2023-05-01T07:58:08.492Z,13728.00
2023-05-01T07:59:08.502Z,13644.00
2023-05-01T08:00:08.473Z,13912.00
2023-05-01T08:01:08.459Z,14148.00
2023-05-01T08:02:08.448Z,14388.00
2023-05-01T08:03:08.704Z,14360.00
2023-05-01T08:04:08.525Z,14256.00
2023-05-01T08:05:08.455Z,14088.00
2023-05-01T08:06:08.505Z,14244.00
2023-05-01T08:07:08.400Z,14220.00
2023-05-01T08:08:08.379Z,14260.00
2023-05-01T08:09:08.376Z,14624.00
2023-05-01T08:10:08.365Z,14656.00
2023-05-01T08:11:08.374Z,14368.00
2023-05-01T08:12:08.342Z,14348.00
2023-05-01T08:13:08.371Z,14364.00
2023-05-01T08:14:08.308Z,14408.00
2023-05-01T08:15:08.320Z,14752.00
2023-05-01T08:16:08.304Z,14816.00
2023-05-01T08:17:08.290Z,14848.00
2023-05-01T08:18:08.300Z,14944.00
2023-05-01T08:19:08.281Z,15104.00
2023-05-01T08:20:08.247Z,15200.00
2023-05-01T08:21:08.240Z,15392.00
2023-05-01T08:22:08.222Z,15424.00
2023-05-01T08:23:08.233Z,15520.00
2023-05-01T08:24:08.194Z,15648.00
2023-05-01T08:25:08.218Z,15488.00
2023-05-01T08:26:08.192Z,15328.00
2023-05-01T08:27:08.181Z,15040.00
2023-05-01T08:28:08.153Z,15136.00
2023-05-01T08:29:08.183Z,15136.00
2023-05-01T08:30:08.177Z,15232.00
2023-05-01T08:31:08.204Z,15296.00
2023-05-01T08:32:08.141Z,15296.00
2023-05-01T08:33:08.170Z,15360.00
2023-05-01T08:34:08.104Z,15808.00
2023-05-01T08:35:08.093Z,15904.00
2023-05-01T08:36:08.077Z,15904.00
2023-05-01T08:37:08.083Z,15904.00
2023-05-01T08:38:08.050Z,16096.00
2023-05-01T08:39:08.033Z,16032.00
2023-05-01T08:40:08.028Z,16192.00
2023-05-01T08:41:08.032Z,16352.00
2023-05-01T08:42:08.006Z,16416.00
2023-05-01T08:43:07.996Z,16288.00
2023-05-01T08:44:08.086Z,15872.00
2023-05-01T08:45:07.992Z,15424.00
2023-05-01T08:46:08.035Z,15008.00
2023-05-01T08:47:08.157Z,14604.00
2023-05-01T08:48:08.080Z,14592.00
2023-05-01T08:49:07.941Z,14816.00
2023-05-01T08:50:07.910Z,14492.00
2023-05-01T08:51:07.914Z,14784.00
2023-05-01T08:52:07.891Z,15008.00
2023-05-01T08:53:07.895Z,15104.00
2023-05-01T08:54:07.892Z,15136.00
2023-05-01T08:55:07.882Z,14816.00
2023-05-01T08:56:07.834Z,14880.00
2023-05-01T08:57:10.253Z,15040.00
2023-05-01T08:58:07.845Z,15360.00
2023-05-01T08:59:07.817Z,15648.00
2023-05-01T09:00:07.805Z,15552.00
2023-05-01T09:01:07.867Z,15584.00
2023-05-01T09:02:08.045Z,15584.00
2023-05-01T09:03:07.901Z,15744.00
2023-05-01T09:04:07.772Z,15872.00
2023-05-01T09:05:07.765Z,15936.00
2023-05-01T09:06:07.798Z,15904.00
2023-05-01T09:07:07.762Z,15936.00
2023-05-01T09:08:07.729Z,15840.00
2023-05-01T09:09:07.699Z,15680.00
2023-05-01T09:10:07.696Z,15680.00
2023-05-01T09:11:07.700Z,15520.00
2023-05-01T09:12:07.691Z,15552.00
2023-05-01T09:13:07.671Z,15392.00
2023-05-01T09:14:07.642Z,15488.00
2023-05-01T09:15:07.711Z,15328.00
2023-05-01T09:16:07.717Z,14848.00
2023-05-01T09:17:07.613Z,14064.00
2023-05-01T09:18:07.704Z,14112.00
2023-05-01T09:19:07.594Z,14052.00
2023-05-01T09:20:07.678Z,13936.00
2023-05-01T09:21:07.604Z,13780.00
2023-05-01T09:22:07.552Z,14052.00
2023-05-01T09:23:07.572Z,14088.00
2023-05-01T09:24:07.535Z,14216.00
2023-05-01T09:25:07.545Z,14400.00
2023-05-01T09:26:07.533Z,14472.00
2023-05-01T09:27:07.534Z,14664.00
2023-05-01T09:28:07.502Z,14648.00
2023-05-01T09:29:07.503Z,14752.00
2023-05-01T09:30:07.461Z,15200.00
2023-05-01T09:31:07.476Z,15008.00
2023-05-01T09:32:07.482Z,15456.00
2023-05-01T09:33:07.512Z,15328.00
2023-05-01T09:34:07.441Z,15616.00
2023-05-01T09:35:07.428Z,15456.00
2023-05-01T09:36:07.393Z,15360.00
2023-05-01T09:37:07.411Z,15328.00
2023-05-01T09:38:07.418Z,15456.00
2023-05-01T09:39:07.384Z,15584.00
2023-05-01T09:40:07.406Z,15520.00
2023-05-01T09:41:07.391Z,15520.00
2023-05-01T09:42:07.329Z,15552.00
2023-05-01T09:43:07.343Z,15552.00
2023-05-01T09:44:07.322Z,15552.00
2023-05-01T09:45:07.311Z,15328.00
2023-05-01T09:46:07.506Z,14928.00
2023-05-01T09:47:07.306Z,14928.00
2023-05-01T09:48:07.308Z,14880.00
2023-05-01T09:49:07.277Z,14964.00
2023-05-01T09:50:07.260Z,14948.00
2023-05-01T09:51:07.263Z,15200.00
2023-05-01T09:52:07.240Z,15296.00
2023-05-01T09:53:07.245Z,15552.00
2023-05-01T09:54:07.214Z,15744.00
2023-05-01T09:55:07.210Z,15744.00
2023-05-01T09:56:07.190Z,15872.00
2023-05-01T09:57:07.211Z,15904.00
2023-05-01T09:58:07.158Z,16032.00
2023-05-01T09:59:07.178Z,16320.00
2023-05-01T10:00:07.181Z,16960.00
2023-05-01T10:01:07.196Z,17632.00
2023-05-01T10:02:07.163Z,17760.00
2023-05-01T10:03:08.589Z,17248.00
2023-05-01T10:04:07.241Z,17472.00
2023-05-01T10:05:07.104Z,17792.00
2023-05-01T10:06:07.090Z,17760.00
2023-05-01T10:07:07.108Z,17472.00
2023-05-01T10:08:07.060Z,17184.00
2023-05-01T10:09:07.046Z,16480.00
2023-05-01T10:10:07.053Z,16384.00
2023-05-01T10:11:07.048Z,16256.00
2023-05-01T10:12:07.031Z,16064.00
2023-05-01T10:13:07.057Z,16064.00
2023-05-01T10:14:07.034Z,16160.00
2023-05-01T10:15:21.046Z,16192.00
2023-05-01T10:16:08.036Z,16256.00
2023-05-01T10:17:07.199Z,16128.00
2023-05-01T10:18:07.003Z,16000.00
2023-05-01T10:19:06.966Z,15936.00
2023-05-01T10:20:06.941Z,15936.00
2023-05-01T10:21:06.935Z,15840.00
2023-05-01T10:22:06.898Z,15840.00
2023-05-01T10:23:06.923Z,15776.00
2023-05-01T10:24:06.925Z,15808.00
2023-05-01T10:25:06.906Z,16032.00
2023-05-01T10:26:07.194Z,16032.00
2023-05-01T10:27:06.864Z,16064.00
2023-05-01T10:28:06.864Z,16192.00
2023-05-01T10:29:06.828Z,16064.00
2023-05-01T10:30:06.826Z,16160.00
2023-05-01T10:31:06.849Z,16128.00
2023-05-01T10:32:06.829Z,16096.00
2023-05-01T10:33:06.818Z,15968.00
2023-05-01T10:34:06.783Z,16096.00
2023-05-01T10:35:06.776Z,16032.00
2023-05-01T10:36:06.816Z,16128.00
2023-05-01T10:37:06.796Z,16352.00
2023-05-01T10:38:06.753Z,16640.00
2023-05-01T10:39:06.712Z,16768.00
2023-05-01T10:40:06.741Z,16832.00
2023-05-01T10:41:06.718Z,16864.00
2023-05-01T10:42:06.738Z,16960.00
2023-05-01T10:43:06.743Z,17024.00
2023-05-01T10:44:06.672Z,17248.00
2023-05-01T10:45:06.680Z,17568.00
2023-05-01T10:46:06.679Z,17824.00
2023-05-01T10:47:06.840Z,18048.00
2023-05-01T10:48:06.676Z,18272.00
2023-05-01T10:49:06.634Z,18368.00
2023-05-01T10:50:06.601Z,18560.00
2023-05-01T10:51:06.615Z,18752.00
2023-05-01T10:52:06.599Z,18912.00
2023-05-01T10:53:06.599Z,19232.00
2023-05-01T10:54:06.560Z,19968.00
2023-05-01T10:55:06.558Z,23712.00
2023-05-01T10:56:06.543Z,29056.00
2023-05-01T10:57:06.598Z,30144.00
2023-05-01T10:58:06.529Z,30560.00
2023-05-01T10:59:06.579Z,32160.00
2023-05-01T11:00:06.514Z,32896.00
2023-05-01T11:01:06.515Z,33120.00
2023-05-01T11:02:06.506Z,34496.00
2023-05-01T11:03:06.634Z,35552.00
2023-05-01T11:04:06.451Z,36000.00
2023-05-01T11:05:06.553Z,36416.00
2023-05-01T11:06:06.573Z,36992.00
2023-05-01T11:07:06.502Z,37024.00
2023-05-01T11:08:06.421Z,38400.00
2023-05-01T11:09:06.414Z,39264.00
2023-05-01T11:10:06.415Z,38976.00
2023-05-01T11:11:06.400Z,40480.00
2023-05-01T11:12:06.359Z,40256.00
2023-05-01T11:13:06.387Z,41088.00
2023-05-01T11:14:06.377Z,42400.00
2023-05-01T11:15:06.374Z,42368.00
2023-05-01T11:16:06.349Z,42112.00
2023-05-01T11:17:06.358Z,41856.00
2023-05-01T11:18:06.513Z,41216.00
2023-05-01T11:19:06.502Z,41152.00
2023-05-01T11:20:06.310Z,41472.00
2023-05-01T11:21:06.311Z,41664.00
2023-05-01T11:22:06.279Z,40704.00
2023-05-01T11:23:06.282Z,40320.00
2023-05-01T11:24:06.255Z,40384.00
2023-05-01T11:25:06.256Z,39648.00
2023-05-01T11:26:06.281Z,41408.00
2023-05-01T11:27:06.243Z,41856.00
2023-05-01T11:28:06.220Z,43424.00
2023-05-01T11:29:06.233Z,44608.00
2023-05-01T11:30:06.210Z,44992.00
2023-05-01T11:31:06.192Z,46592.00
2023-05-01T11:32:06.270Z,48928.00
2023-05-01T11:33:07.112Z,48736.00
2023-05-01T11:34:06.171Z,49824.00
2023-05-01T11:35:06.153Z,47136.00
2023-05-01T11:36:06.198Z,43168.00
2023-05-01T11:37:06.117Z,41440.00
2023-05-01T11:38:06.114Z,38464.00
2023-05-01T11:39:06.148Z,38752.00
2023-05-01T11:40:06.100Z,39488.00
2023-05-01T11:41:06.093Z,41856.00
2023-05-01T11:42:06.118Z,42656.00
2023-05-01T11:43:06.074Z,42208.00
2023-05-01T11:44:06.055Z,41152.00
2023-05-01T11:45:06.014Z,40384.00
2023-05-01T11:46:06.059Z,42944.00
2023-05-01T11:47:06.056Z,43872.00
2023-05-01T11:48:06.137Z,41344.00
2023-05-01T11:49:06.220Z,40736.00
2023-05-01T11:50:06.029Z,41056.00
2023-05-01T11:51:05.960Z,42688.00
2023-05-01T11:52:05.974Z,47456.00
2023-05-01T11:53:05.933Z,46944.00
2023-05-01T11:54:05.935Z,43456.00
2023-05-01T11:55:05.937Z,46560.00
2023-05-01T11:56:10.859Z,49344.00
2023-05-01T11:57:06.929Z,50496.00
2023-05-01T11:58:05.900Z,54464.00
2023-05-01T11:59:05.875Z,54944.00
2023-05-01T12:00:05.866Z,58752.00
2023-05-01T12:01:05.846Z,59232.00
2023-05-01T12:02:05.898Z,47904.00
2023-05-01T12:03:06.253Z,43296.00
2023-05-01T12:04:05.909Z,40736.00
2023-05-01T12:05:05.995Z,47712.00
2023-05-01T12:06:05.932Z,45856.00
2023-05-01T12:07:05.795Z,51584.00
2023-05-01T12:08:05.861Z,48832.00
2023-05-01T12:09:05.770Z,35488.00
2023-05-01T12:10:05.797Z,36320.00
2023-05-01T12:11:06.124Z,45376.00
2023-05-01T12:12:05.766Z,42688.00
2023-05-01T12:13:05.743Z,48320.00
2023-05-01T12:14:05.731Z,38560.00
2023-05-01T12:15:05.709Z,40640.00
2023-05-01T12:16:05.981Z,38368.00
2023-05-01T12:17:05.811Z,40256.00